sensor_id;sensor_type;location;lat;lon;timestamp;pressure;altitude;pressure_sealevel;temperature;humidity
77545;BME280;66672;50.328;7.610;2023-02-15T00:01:37;101394.38;;;2.53;77.48
77545;BME280;66672;50.328;7.610;2023-02-15T00:04:03;101395.75;;;2.36;77.89
77545;BME280;66672;50.328;7.610;2023-02-15T00:06:29;101387.53;;;2.47;76.92
77545;BME280;66672;50.328;7.610;2023-02-15T00:08:55;101387.53;;;2.47;77.13
77545;BME280;66672;50.328;7.610;2023-02-15T00:11:20;101393.84;;;2.70;76.25
77545;BME280;66672;50.328;7.610;2023-02-15T00:14:13;101388.75;;;2.63;76.43
77545;BME280;66672;50.328;7.610;2023-02-15T00:16:40;101387.00;;;2.64;76.40
77545;BME280;66672;50.328;7.610;2023-02-15T00:19:07;101385.56;;;2.54;76.42
77545;BME280;66672;50.328;7.610;2023-02-15T00:21:33;101383.41;;;2.37;77.21
77545;BME280;66672;50.328;7.610;2023-02-15T00:24:00;101384.34;;;2.34;77.37
77545;BME280;66672;50.328;7.610;2023-02-15T00:26:27;101373.75;;;2.65;75.96
77545;BME280;66672;50.328;7.610;2023-02-15T00:28:53;101357.63;;;2.75;75.21
77545;BME280;66672;50.328;7.610;2023-02-15T00:31:19;101369.66;;;2.55;76.00
77545;BME280;66672;50.328;7.610;2023-02-15T00:33:45;101369.69;;;2.26;76.41
77545;BME280;66672;50.328;7.610;2023-02-15T00:36:10;101372.53;;;2.18;77.25
77545;BME280;66672;50.328;7.610;2023-02-15T00:38:36;101372.53;;;2.18;77.02
77545;BME280;66672;50.328;7.610;2023-02-15T00:41:04;101375.69;;;2.31;77.61
77545;BME280;66672;50.328;7.610;2023-02-15T00:43:30;101378.41;;;2.28;76.72
77545;BME280;66672;50.328;7.610;2023-02-15T00:45:56;101375.75;;;2.28;76.18
77545;BME280;66672;50.328;7.610;2023-02-15T00:48:23;101372.50;;;2.20;78.36
77545;BME280;66672;50.328;7.610;2023-02-15T00:50:49;101374.03;;;2.56;76.33
77545;BME280;66672;50.328;7.610;2023-02-15T00:53:15;101378.50;;;2.25;76.43
77545;BME280;66672;50.328;7.610;2023-02-15T00:55:40;101378.56;;;2.22;76.87
77545;BME280;66672;50.328;7.610;2023-02-15T00:58:06;101379.88;;;2.38;75.95
77545;BME280;66672;50.328;7.610;2023-02-15T01:00:32;101370.84;;;2.45;75.32
77545;BME280;66672;50.328;7.610;2023-02-15T01:02:57;101363.84;;;1.83;77.60
77545;BME280;66672;50.328;7.610;2023-02-15T01:05:22;101361.88;;;2.52;74.76
77545;BME280;66672;50.328;7.610;2023-02-15T01:07:48;101362.78;;;1.91;77.30
77545;BME280;66672;50.328;7.610;2023-02-15T01:10:13;101352.13;;;2.25;75.41
77545;BME280;66672;50.328;7.610;2023-02-15T01:12:38;101356.66;;;2.20;76.11
77545;BME280;66672;50.328;7.610;2023-02-15T01:15:03;101361.34;;;2.39;75.51
77545;BME280;66672;50.328;7.610;2023-02-15T01:17:29;101369.03;;;2.18;75.58
77545;BME280;66672;50.328;7.610;2023-02-15T01:19:55;101350.69;;;1.83;76.63
77545;BME280;66672;50.328;7.610;2023-02-15T01:22:20;101364.81;;;2.42;74.90
77545;BME280;66672;50.328;7.610;2023-02-15T01:24:48;101355.69;;;2.24;75.39
77545;BME280;66672;50.328;7.610;2023-02-15T01:27:14;101358.16;;;2.28;75.27
77545;BME280;66672;50.328;7.610;2023-02-15T01:29:39;101360.28;;;2.17;75.45
77545;BME280;66672;50.328;7.610;2023-02-15T01:32:04;101355.00;;;2.47;74.80
77545;BME280;66672;50.328;7.610;2023-02-15T01:34:30;101345.28;;;2.75;73.87
77545;BME280;66672;50.328;7.610;2023-02-15T01:36:55;101349.81;;;3.00;72.02
77545;BME280;66672;50.328;7.610;2023-02-15T01:39:20;101344.06;;;2.59;73.64
77545;BME280;66672;50.328;7.610;2023-02-15T01:41:45;101355.84;;;2.75;74.26
77545;BME280;66672;50.328;7.610;2023-02-15T01:44:49;101349.38;;;2.85;74.02
77545;BME280;66672;50.328;7.610;2023-02-15T01:47:19;101353.78;;;2.57;74.45
77545;BME280;66672;50.328;7.610;2023-02-15T01:49:46;101345.06;;;2.83;74.29
77545;BME280;66672;50.328;7.610;2023-02-15T01:52:14;101346.72;;;2.29;75.36
77545;BME280;66672;50.328;7.610;2023-02-15T01:54:43;101340.00;;;3.30;72.33
77545;BME280;66672;50.328;7.610;2023-02-15T01:57:13;101346.72;;;2.57;73.53
77545;BME280;66672;50.328;7.610;2023-02-15T01:59:43;101346.31;;;2.71;74.21
77545;BME280;66672;50.328;7.610;2023-02-15T02:02:11;101338.72;;;2.60;74.39
77545;BME280;66672;50.328;7.610;2023-02-15T02:04:45;101332.88;;;1.92;75.98
77545;BME280;66672;50.328;7.610;2023-02-15T02:07:15;101331.59;;;2.34;75.24
77545;BME280;66672;50.328;7.610;2023-02-15T02:09:42;101327.59;;;2.21;75.82
77545;BME280;66672;50.328;7.610;2023-02-15T02:12:08;101320.41;;;2.56;74.10
77545;BME280;66672;50.328;7.610;2023-02-15T02:14:35;101336.50;;;2.19;74.36
77545;BME280;66672;50.328;7.610;2023-02-15T02:17:16;101324.72;;;2.30;75.56
77545;BME280;66672;50.328;7.610;2023-02-15T02:28:57;101308.81;;;1.73;77.34
77545;BME280;66672;50.328;7.610;2023-02-15T02:42:12;101301.91;;;1.98;74.75
77545;BME280;66672;50.328;7.610;2023-02-15T02:44:57;101299.81;;;2.09;74.46
77545;BME280;66672;50.328;7.610;2023-02-15T02:50:02;101297.19;;;1.80;74.40
77545;BME280;66672;50.328;7.610;2023-02-15T02:52:49;101281.13;;;1.89;74.67
77545;BME280;66672;50.328;7.610;2023-02-15T02:55:19;101283.19;;;2.37;73.67
77545;BME280;66672;50.328;7.610;2023-02-15T02:57:55;101283.66;;;1.92;74.74
77545;BME280;66672;50.328;7.610;2023-02-15T03:00:24;101281.38;;;1.80;76.08
77545;BME280;66672;50.328;7.610;2023-02-15T03:02:56;101270.25;;;2.29;74.17
77545;BME280;66672;50.328;7.610;2023-02-15T03:05:25;101273.84;;;1.97;74.70
77545;BME280;66672;50.328;7.610;2023-02-15T03:07:53;101279.75;;;2.05;73.48
77545;BME280;66672;50.328;7.610;2023-02-15T03:10:23;101277.63;;;1.89;74.38
77545;BME280;66672;50.328;7.610;2023-02-15T03:12:49;101272.78;;;2.03;74.26
77545;BME280;66672;50.328;7.610;2023-02-15T03:15:20;101274.34;;;2.38;72.59
77545;BME280;66672;50.328;7.610;2023-02-15T03:17:51;101274.38;;;2.08;74.33
77545;BME280;66672;50.328;7.610;2023-02-15T03:20:24;101264.56;;;2.13;73.45
77545;BME280;66672;50.328;7.610;2023-02-15T03:22:53;101270.13;;;2.32;72.51
77545;BME280;66672;50.328;7.610;2023-02-15T03:25:23;101268.63;;;2.52;72.37
77545;BME280;66672;50.328;7.610;2023-02-15T03:27:55;101265.44;;;2.70;72.14
77545;BME280;66672;50.328;7.610;2023-02-15T03:30:24;101264.59;;;2.40;72.44
77545;BME280;66672;50.328;7.610;2023-02-15T03:32:51;101259.06;;;3.02;70.77
77545;BME280;66672;50.328;7.610;2023-02-15T03:35:21;101264.47;;;2.98;71.02
77545;BME280;66672;50.328;7.610;2023-02-15T03:37:57;101264.78;;;2.62;71.53
77545;BME280;66672;50.328;7.610;2023-02-15T03:40:31;101259.13;;;3.26;70.51
77545;BME280;66672;50.328;7.610;2023-02-15T03:46:37;101252.97;;;2.74;71.56
77545;BME280;66672;50.328;7.610;2023-02-15T03:49:06;101260.69;;;3.06;70.66
77545;BME280;66672;50.328;7.610;2023-02-15T03:51:36;101249.72;;;2.92;71.69
77545;BME280;66672;50.328;7.610;2023-02-15T03:56:33;101242.72;;;2.91;72.03
77545;BME280;66672;50.328;7.610;2023-02-15T03:58:59;101245.25;;;2.94;70.85
77545;BME280;66672;50.328;7.610;2023-02-15T04:04:37;101240.66;;;2.46;72.64
77545;BME280;66672;50.328;7.610;2023-02-15T04:07:05;101245.72;;;2.80;71.81
77545;BME280;66672;50.328;7.610;2023-02-15T04:09:31;101244.47;;;2.65;71.56
77545;BME280;66672;50.328;7.610;2023-02-15T04:12:15;101245.72;;;2.54;71.41
77545;BME280;66672;50.328;7.610;2023-02-15T04:14:40;101248.13;;;2.05;72.74
77545;BME280;66672;50.328;7.610;2023-02-15T04:17:24;101258.50;;;2.11;72.95
77545;BME280;66672;50.328;7.610;2023-02-15T04:19:50;101259.34;;;2.12;72.32
77545;BME280;66672;50.328;7.610;2023-02-15T04:22:34;101264.81;;;2.04;73.32
77545;BME280;66672;50.328;7.610;2023-02-15T04:25:17;101255.34;;;2.27;71.83
77545;BME280;66672;50.328;7.610;2023-02-15T04:27:46;101253.38;;;2.35;71.74
77545;BME280;66672;50.328;7.610;2023-02-15T04:30:13;101253.31;;;2.63;71.00
77545;BME280;66672;50.328;7.610;2023-02-15T04:32:39;101235.88;;;2.85;69.53
77545;BME280;66672;50.328;7.610;2023-02-15T04:35:05;101246.16;;;2.93;70.46
77545;BME280;66672;50.328;7.610;2023-02-15T04:37:31;101241.78;;;2.39;71.45
77545;BME280;66672;50.328;7.610;2023-02-15T04:39:57;101235.50;;;2.15;72.57
77545;BME280;66672;50.328;7.610;2023-02-15T04:42:26;101231.91;;;2.72;71.18
77545;BME280;66672;50.328;7.610;2023-02-15T04:44:52;101239.13;;;2.40;71.61
77545;BME280;66672;50.328;7.610;2023-02-15T04:47:18;101239.00;;;2.16;72.69
77545;BME280;66672;50.328;7.610;2023-02-15T04:49:43;101237.47;;;2.36;71.61
77545;BME280;66672;50.328;7.610;2023-02-15T04:52:09;101238.72;;;2.53;72.34
77545;BME280;66672;50.328;7.610;2023-02-15T04:54:34;101232.25;;;2.61;71.10
77545;BME280;66672;50.328;7.610;2023-02-15T04:57:00;101243.41;;;2.43;71.91
77545;BME280;66672;50.328;7.610;2023-02-15T04:59:25;101243.34;;;2.45;71.45
77545;BME280;66672;50.328;7.610;2023-02-15T05:01:50;101228.63;;;2.65;70.46
77545;BME280;66672;50.328;7.610;2023-02-15T05:04:16;101231.00;;;2.47;71.40
77545;BME280;66672;50.328;7.610;2023-02-15T05:06:41;101227.06;;;2.60;71.43
77545;BME280;66672;50.328;7.610;2023-02-15T05:09:06;101242.13;;;2.83;70.20
77545;BME280;66672;50.328;7.610;2023-02-15T05:11:31;101233.78;;;2.95;69.71
77545;BME280;66672;50.328;7.610;2023-02-15T05:13:57;101229.84;;;2.82;70.74
77545;BME280;66672;50.328;7.610;2023-02-15T05:16:22;101227.75;;;2.65;71.15
77545;BME280;66672;50.328;7.610;2023-02-15T05:18:47;101235.59;;;2.40;71.35
77545;BME280;66672;50.328;7.610;2023-02-15T05:21:13;101239.78;;;3.00;69.82
77545;BME280;66672;50.328;7.610;2023-02-15T05:23:38;101236.06;;;2.79;70.53
77545;BME280;66672;50.328;7.610;2023-02-15T05:26:04;101238.91;;;2.73;70.91
77545;BME280;66672;50.328;7.610;2023-02-15T05:28:48;101243.94;;;2.54;70.78
77545;BME280;66672;50.328;7.610;2023-02-15T05:31:15;101250.53;;;2.94;69.97
77545;BME280;66672;50.328;7.610;2023-02-15T05:33:42;101232.88;;;2.96;70.28
77545;BME280;66672;50.328;7.610;2023-02-15T05:36:08;101237.63;;;2.85;69.91
77545;BME280;66672;50.328;7.610;2023-02-15T05:38:34;101236.78;;;3.09;69.97
77545;BME280;66672;50.328;7.610;2023-02-15T05:40:59;101237.13;;;3.00;69.56
77545;BME280;66672;50.328;7.610;2023-02-15T05:43:25;101231.09;;;3.21;69.58
77545;BME280;66672;50.328;7.610;2023-02-15T05:45:53;101228.06;;;3.07;69.12
77545;BME280;66672;50.328;7.610;2023-02-15T05:48:23;101236.00;;;3.07;70.06
77545;BME280;66672;50.328;7.610;2023-02-15T05:51:10;101233.59;;;3.50;68.90
77545;BME280;66672;50.328;7.610;2023-02-15T05:53:37;101243.72;;;3.13;69.95
77545;BME280;66672;50.328;7.610;2023-02-15T05:56:05;101226.13;;;3.12;69.98
77545;BME280;66672;50.328;7.610;2023-02-15T05:58:33;101229.03;;;3.30;69.71
77545;BME280;66672;50.328;7.610;2023-02-15T06:00:58;101216.72;;;3.54;68.67
77545;BME280;66672;50.328;7.610;2023-02-15T06:03:24;101232.47;;;2.82;70.76
77545;BME280;66672;50.328;7.610;2023-02-15T06:05:51;101237.06;;;3.02;70.91
77545;BME280;66672;50.328;7.610;2023-02-15T06:08:17;101229.75;;;3.35;69.90
77545;BME280;66672;50.328;7.610;2023-02-15T06:10:42;101216.53;;;3.35;70.08
77545;BME280;66672;50.328;7.610;2023-02-15T06:15:33;101229.28;;;3.22;70.42
77545;BME280;66672;50.328;7.610;2023-02-15T06:17:58;101231.81;;;2.49;72.41
77545;BME280;66672;50.328;7.610;2023-02-15T06:20:24;101232.88;;;3.21;70.84
77545;BME280;66672;50.328;7.610;2023-02-15T06:22:49;101232.78;;;3.24;70.18
77545;BME280;66672;50.328;7.610;2023-02-15T06:25:15;101226.44;;;3.28;71.03
77545;BME280;66672;50.328;7.610;2023-02-15T06:27:41;101236.91;;;3.06;70.86
77545;BME280;66672;50.328;7.610;2023-02-15T06:30:09;101237.56;;;3.13;71.29
77545;BME280;66672;50.328;7.610;2023-02-15T06:32:34;101237.97;;;2.76;72.37
77545;BME280;66672;50.328;7.610;2023-02-15T06:34:59;101235.88;;;3.10;71.72
77545;BME280;66672;50.328;7.610;2023-02-15T06:37:25;101237.66;;;3.10;71.82
77545;BME280;66672;50.328;7.610;2023-02-15T06:39:50;101237.44;;;2.91;72.44
77545;BME280;66672;50.328;7.610;2023-02-15T06:42:15;101241.66;;;3.21;71.20
77545;BME280;66672;50.328;7.610;2023-02-15T06:44:43;101228.78;;;2.87;71.57
77545;BME280;66672;50.328;7.610;2023-02-15T06:47:08;101238.63;;;3.32;70.85
77545;BME280;66672;50.328;7.610;2023-02-15T06:49:33;101255.72;;;3.22;71.40
77545;BME280;66672;50.328;7.610;2023-02-15T06:51:58;101259.56;;;2.87;72.36
77545;BME280;66672;50.328;7.610;2023-02-15T06:54:24;101252.63;;;3.11;71.55
77545;BME280;66672;50.328;7.610;2023-02-15T06:56:49;101254.41;;;3.34;70.91
77545;BME280;66672;50.328;7.610;2023-02-15T06:59:14;101251.28;;;2.98;72.39
77545;BME280;66672;50.328;7.610;2023-02-15T07:01:39;101253.41;;;3.38;71.13
77545;BME280;66672;50.328;7.610;2023-02-15T07:04:05;101251.69;;;3.12;71.44
77545;BME280;66672;50.328;7.610;2023-02-15T07:06:31;101247.50;;;3.05;72.19
77545;BME280;66672;50.328;7.610;2023-02-15T07:08:58;101248.13;;;3.38;72.00
77545;BME280;66672;50.328;7.610;2023-02-15T07:11:24;101241.16;;;3.60;70.93
77545;BME280;66672;50.328;7.610;2023-02-15T07:14:08;101232.41;;;3.35;70.81
77545;BME280;66672;50.328;7.610;2023-02-15T07:16:34;101244.41;;;3.43;71.61
77545;BME280;66672;50.328;7.610;2023-02-15T07:18:59;101237.16;;;3.48;71.64
77545;BME280;66672;50.328;7.610;2023-02-15T07:21:24;101243.81;;;3.35;71.46
77545;BME280;66672;50.328;7.610;2023-02-15T07:23:50;101250.13;;;2.80;72.81
77545;BME280;66672;50.328;7.610;2023-02-15T07:26:15;101249.53;;;3.23;71.76
77545;BME280;66672;50.328;7.610;2023-02-15T07:28:40;101244.56;;;3.39;71.11
77545;BME280;66672;50.328;7.610;2023-02-15T07:31:06;101242.44;;;3.48;70.81
77545;BME280;66672;50.328;7.610;2023-02-15T07:33:32;101249.31;;;3.29;71.62
77545;BME280;66672;50.328;7.610;2023-02-15T07:35:59;101254.19;;;3.40;70.71
77545;BME280;66672;50.328;7.610;2023-02-15T07:38:29;101256.69;;;3.19;71.63
77545;BME280;66672;50.328;7.610;2023-02-15T07:41:02;101249.53;;;3.71;70.93
77545;BME280;66672;50.328;7.610;2023-02-15T07:43:29;101245.41;;;3.39;71.92
77545;BME280;66672;50.328;7.610;2023-02-15T07:45:58;101238.16;;;3.21;72.27
77545;BME280;66672;50.328;7.610;2023-02-15T07:48:23;101244.69;;;3.36;72.33
77545;BME280;66672;50.328;7.610;2023-02-15T07:50:48;101244.59;;;3.62;70.24
77545;BME280;66672;50.328;7.610;2023-02-15T07:53:14;101242.50;;;3.22;72.23
77545;BME280;66672;50.328;7.610;2023-02-15T07:55:39;101237.63;;;3.36;72.35
77545;BME280;66672;50.328;7.610;2023-02-15T07:58:04;101243.16;;;3.04;72.43
77545;BME280;66672;50.328;7.610;2023-02-15T08:00:30;101238.44;;;3.13;72.52
77545;BME280;66672;50.328;7.610;2023-02-15T08:03:15;101237.00;;;3.53;71.52
77545;BME280;66672;50.328;7.610;2023-02-15T08:05:43;101230.59;;;3.10;72.33
77545;BME280;66672;50.328;7.610;2023-02-15T08:08:09;101234.28;;;3.31;71.58
77545;BME280;66672;50.328;7.610;2023-02-15T08:10:57;101214.56;;;2.65;74.13
77545;BME280;66672;50.328;7.610;2023-02-15T08:13:43;101218.44;;;2.80;73.21
77545;BME280;66672;50.328;7.610;2023-02-15T08:16:28;101220.03;;;3.10;71.92
77545;BME280;66672;50.328;7.610;2023-02-15T08:18:54;101208.66;;;2.57;73.86
77545;BME280;66672;50.328;7.610;2023-02-15T08:21:20;101194.38;;;2.64;74.52
77545;BME280;66672;50.328;7.610;2023-02-15T08:23:45;101197.25;;;2.56;74.19
77545;BME280;66672;50.328;7.610;2023-02-15T08:26:11;101181.56;;;2.52;74.90
77545;BME280;66672;50.328;7.610;2023-02-15T08:28:36;101190.63;;;2.96;73.88
77545;BME280;66672;50.328;7.610;2023-02-15T08:31:06;101187.41;;;2.61;74.56
77545;BME280;66672;50.328;7.610;2023-02-15T08:33:32;101188.41;;;2.57;74.11
77545;BME280;66672;50.328;7.610;2023-02-15T08:36:02;101182.31;;;3.07;73.19
77545;BME280;66672;50.328;7.610;2023-02-15T08:38:28;101182.94;;;2.37;75.02
77545;BME280;66672;50.328;7.610;2023-02-15T08:40:53;101180.09;;;2.70;73.62
77545;BME280;66672;50.328;7.610;2023-02-15T08:43:19;101187.75;;;2.77;74.40
77545;BME280;66672;50.328;7.610;2023-02-15T08:45:44;101183.13;;;2.84;73.68
77545;BME280;66672;50.328;7.610;2023-02-15T08:48:09;101178.44;;;2.92;73.89
77545;BME280;66672;50.328;7.610;2023-02-15T08:50:35;101174.00;;;2.92;73.48
77545;BME280;66672;50.328;7.610;2023-02-15T08:53:00;101174.25;;;3.11;73.02
77545;BME280;66672;50.328;7.610;2023-02-15T08:55:25;101176.34;;;3.02;73.73
77545;BME280;66672;50.328;7.610;2023-02-15T08:57:50;101178.56;;;3.37;72.40
77545;BME280;66672;50.328;7.610;2023-02-15T09:00:16;101173.41;;;3.34;71.41
77545;BME280;66672;50.328;7.610;2023-02-15T09:02:42;101166.09;;;3.17;72.82
77545;BME280;66672;50.328;7.610;2023-02-15T09:05:07;101174.91;;;3.41;71.76
77545;BME280;66672;50.328;7.610;2023-02-15T09:07:32;101170.63;;;3.84;71.01
77545;BME280;66672;50.328;7.610;2023-02-15T09:09:58;101181.34;;;3.34;72.45
77545;BME280;66672;50.328;7.610;2023-02-15T09:12:23;101178.72;;;3.33;72.11
77545;BME280;66672;50.328;7.610;2023-02-15T09:14:51;101176.88;;;4.05;69.96
77545;BME280;66672;50.328;7.610;2023-02-15T09:17:16;101172.69;;;3.99;69.52
77545;BME280;66672;50.328;7.610;2023-02-15T09:19:41;101171.56;;;4.05;69.87
77545;BME280;66672;50.328;7.610;2023-02-15T09:22:07;101177.94;;;3.54;70.95
77545;BME280;66672;50.328;7.610;2023-02-15T09:24:32;101179.66;;;3.55;71.28
77545;BME280;66672;50.328;7.610;2023-02-15T09:26:58;101164.22;;;4.34;69.24
77545;BME280;66672;50.328;7.610;2023-02-15T09:29:24;101170.88;;;4.00;69.82
77545;BME280;66672;50.328;7.610;2023-02-15T09:31:50;101177.97;;;3.99;69.98
77545;BME280;66672;50.328;7.610;2023-02-15T09:34:17;101162.47;;;4.34;68.27
77545;BME280;66672;50.328;7.610;2023-02-15T09:36:43;101168.53;;;4.58;67.97
77545;BME280;66672;50.328;7.610;2023-02-15T09:47:41;101180.31;;;4.92;66.10
77545;BME280;66672;50.328;7.610;2023-02-15T09:58:05;101178.84;;;4.64;66.90
77545;BME280;66672;50.328;7.610;2023-02-15T10:06:48;101178.28;;;4.98;67.02
77545;BME280;66672;50.328;7.610;2023-02-15T10:14:52;101184.56;;;4.96;66.75
77545;BME280;66672;50.328;7.610;2023-02-15T10:17:29;101190.69;;;4.96;66.83
77545;BME280;66672;50.328;7.610;2023-02-15T10:20:23;101183.22;;;5.06;66.80
77545;BME280;66672;50.328;7.610;2023-02-15T10:23:44;101185.25;;;5.20;66.22
77545;BME280;66672;50.328;7.610;2023-02-15T10:28:57;101165.25;;;5.89;64.29
77545;BME280;66672;50.328;7.610;2023-02-15T10:31:31;101162.88;;;6.21;64.00
77545;BME280;66672;50.328;7.610;2023-02-15T10:51:03;101168.56;;;6.67;62.81
77545;BME280;66672;50.328;7.610;2023-02-15T11:07:44;101147.41;;;6.12;65.13
77545;BME280;66672;50.328;7.610;2023-02-15T11:10:32;101152.00;;;6.62;63.79
77545;BME280;66672;50.328;7.610;2023-02-15T11:13:05;101152.63;;;6.50;63.67
77545;BME280;66672;50.328;7.610;2023-02-15T11:15:38;101140.50;;;6.44;64.32
77545;BME280;66672;50.328;7.610;2023-02-15T11:18:21;101139.34;;;6.67;63.16
77545;BME280;66672;50.328;7.610;2023-02-15T11:23:51;101125.59;;;6.93;62.57
77545;BME280;66672;50.328;7.610;2023-02-15T11:31:46;101118.00;;;6.86;62.69
77545;BME280;66672;50.328;7.610;2023-02-15T11:34:20;101120.50;;;6.89;62.88
77545;BME280;66672;50.328;7.610;2023-02-15T11:36:49;101117.56;;;7.28;61.59
77545;BME280;66672;50.328;7.610;2023-02-15T11:39:17;101113.75;;;7.16;61.27
77545;BME280;66672;50.328;7.610;2023-02-15T11:41:49;101107.13;;;7.57;60.15
77545;BME280;66672;50.328;7.610;2023-02-15T11:44:52;101104.47;;;7.57;60.73
77545;BME280;66672;50.328;7.610;2023-02-15T11:47:19;101099.72;;;7.62;60.11
77545;BME280;66672;50.328;7.610;2023-02-15T11:49:45;101092.50;;;7.80;59.75
77545;BME280;66672;50.328;7.610;2023-02-15T11:52:13;101086.22;;;9.99;54.07
77545;BME280;66672;50.328;7.610;2023-02-15T11:54:43;101080.13;;;12.49;46.80
77545;BME280;66672;50.328;7.610;2023-02-15T11:57:32;101079.56;;;12.33;45.90
77545;BME280;66672;50.328;7.610;2023-02-15T12:00:04;101072.78;;;12.16;47.19
77545;BME280;66672;50.328;7.610;2023-02-15T12:02:33;101071.47;;;11.11;50.35
77545;BME280;66672;50.328;7.610;2023-02-15T12:05:04;101069.66;;;11.48;49.09
77545;BME280;66672;50.328;7.610;2023-02-15T12:07:37;101059.09;;;13.00;45.20
77545;BME280;66672;50.328;7.610;2023-02-15T12:12:39;101039.50;;;13.88;42.58
77545;BME280;66672;50.328;7.610;2023-02-15T12:15:09;101042.31;;;13.21;43.27
77545;BME280;66672;50.328;7.610;2023-02-15T12:17:49;101037.97;;;14.59;41.33
77545;BME280;66672;50.328;7.610;2023-02-15T12:22:48;101023.38;;;13.88;42.96
77545;BME280;66672;50.328;7.610;2023-02-15T12:25:22;101030.53;;;14.93;39.95
77545;BME280;66672;50.328;7.610;2023-02-15T12:27:49;101021.69;;;14.82;40.76
77545;BME280;66672;50.328;7.610;2023-02-15T12:30:36;101023.06;;;14.97;40.52
77545;BME280;66672;50.328;7.610;2023-02-15T12:33:15;101015.66;;;15.30;39.66
77545;BME280;66672;50.328;7.610;2023-02-15T12:35:42;101010.44;;;16.36;37.63
77545;BME280;66672;50.328;7.610;2023-02-15T12:40:34;101004.69;;;14.81;40.24
77545;BME280;66672;50.328;7.610;2023-02-15T12:43:00;100994.81;;;15.82;38.90
77545;BME280;66672;50.328;7.610;2023-02-15T12:45:34;101008.38;;;13.85;42.18
77545;BME280;66672;50.328;7.610;2023-02-15T12:48:14;100999.53;;;13.95;42.40
77545;BME280;66672;50.328;7.610;2023-02-15T12:50:45;100995.53;;;15.93;38.87
77545;BME280;66672;50.328;7.610;2023-02-15T12:53:21;101002.72;;;13.56;42.80
77545;BME280;66672;50.328;7.610;2023-02-15T12:56:00;100990.41;;;16.00;39.20
77545;BME280;66672;50.328;7.610;2023-02-15T12:58:28;100991.78;;;13.37;43.87
77545;BME280;66672;50.328;7.610;2023-02-15T13:01:25;100988.00;;;13.40;43.95
77545;BME280;66672;50.328;7.610;2023-02-15T13:06:25;100990.81;;;13.81;43.25
77545;BME280;66672;50.328;7.610;2023-02-15T13:08:54;100979.91;;;15.87;40.64
77545;BME280;66672;50.328;7.610;2023-02-15T13:11:30;100970.72;;;14.18;42.03
77545;BME280;66672;50.328;7.610;2023-02-15T13:14:02;100970.03;;;13.83;43.88
77545;BME280;66672;50.328;7.610;2023-02-15T13:16:32;100966.34;;;14.89;41.74
77545;BME280;66672;50.328;7.610;2023-02-15T13:19:04;100968.03;;;14.38;42.34
77545;BME280;66672;50.328;7.610;2023-02-15T13:21:37;100961.03;;;15.08;40.07
77545;BME280;66672;50.328;7.610;2023-02-15T13:25:04;100960.16;;;14.98;41.54
77545;BME280;66672;50.328;7.610;2023-02-15T13:27:15;100952.22;;;14.45;42.39
77545;BME280;66672;50.328;7.610;2023-02-15T13:29:44;100952.25;;;14.66;41.93
77545;BME280;66672;50.328;7.610;2023-02-15T13:32:21;100948.91;;;14.83;41.66
77545;BME280;66672;50.328;7.610;2023-02-15T13:34:54;100949.22;;;15.30;40.37
77545;BME280;66672;50.328;7.610;2023-02-15T13:40:33;100939.50;;;15.18;40.37
77545;BME280;66672;50.328;7.610;2023-02-15T13:43:10;100924.47;;;15.85;39.84
77545;BME280;66672;50.328;7.610;2023-02-15T13:46:00;100928.19;;;15.24;41.03
77545;BME280;66672;50.328;7.610;2023-02-15T13:48:41;100932.94;;;14.61;41.72
77545;BME280;66672;50.328;7.610;2023-02-15T13:54:15;100920.16;;;16.31;38.74
77545;BME280;66672;50.328;7.610;2023-02-15T14:01:55;100916.69;;;14.00;43.02
77545;BME280;66672;50.328;7.610;2023-02-15T14:04:31;100914.78;;;14.32;42.64
77545;BME280;66672;50.328;7.610;2023-02-15T14:25:20;100902.22;;;13.16;45.42
77545;BME280;66672;50.328;7.610;2023-02-15T14:28:04;100909.31;;;13.28;45.09
77545;BME280;66672;50.328;7.610;2023-02-15T14:30:36;100917.88;;;12.54;46.38
77545;BME280;66672;50.328;7.610;2023-02-15T14:35:56;100907.56;;;12.61;46.66
77545;BME280;66672;50.328;7.610;2023-02-15T14:41:21;100908.41;;;11.58;48.48
77545;BME280;66672;50.328;7.610;2023-02-15T14:44:15;100900.06;;;11.26;49.42
77545;BME280;66672;50.328;7.610;2023-02-15T14:47:02;100904.50;;;12.32;48.15
77545;BME280;66672;50.328;7.610;2023-02-15T14:49:35;100901.13;;;11.95;47.84
77545;BME280;66672;50.328;7.610;2023-02-15T14:52:06;100900.03;;;11.62;48.92
77545;BME280;66672;50.328;7.610;2023-02-15T14:59:57;100906.66;;;10.85;51.30
77545;BME280;66672;50.328;7.610;2023-02-15T15:02:43;100899.50;;;11.09;50.69
77545;BME280;66672;50.328;7.610;2023-02-15T15:05:20;100892.41;;;11.80;48.80
77545;BME280;66672;50.328;7.610;2023-02-15T15:07:53;100895.28;;;11.18;50.26
77545;BME280;66672;50.328;7.610;2023-02-15T15:12:58;100887.44;;;10.54;51.74
77545;BME280;66672;50.328;7.610;2023-02-15T15:17:55;100892.81;;;10.41;52.79
77545;BME280;66672;50.328;7.610;2023-02-15T15:20:38;100900.28;;;10.99;51.25
77545;BME280;66672;50.328;7.610;2023-02-15T15:34:02;100901.53;;;9.80;54.38
77545;BME280;66672;50.328;7.610;2023-02-15T15:42:18;100904.09;;;9.94;53.84
77545;BME280;66672;50.328;7.610;2023-02-15T15:50:54;100902.06;;;9.45;54.94
77545;BME280;66672;50.328;7.610;2023-02-15T15:53:24;100900.97;;;9.35;55.40
77545;BME280;66672;50.328;7.610;2023-02-15T15:55:55;100893.91;;;9.07;55.44
77545;BME280;66672;50.328;7.610;2023-02-15T15:58:23;100897.03;;;8.72;56.58
77545;BME280;66672;50.328;7.610;2023-02-15T16:01:02;100897.16;;;8.57;57.39
77545;BME280;66672;50.328;7.610;2023-02-15T16:03:29;100899.47;;;8.90;57.25
77545;BME280;66672;50.328;7.610;2023-02-15T16:05:55;100896.75;;;8.48;58.35
77545;BME280;66672;50.328;7.610;2023-02-15T16:08:31;100886.34;;;8.87;56.95
77545;BME280;66672;50.328;7.610;2023-02-15T16:10:58;100887.16;;;8.60;58.16
77545;BME280;66672;50.328;7.610;2023-02-15T16:13:24;100890.66;;;7.73;60.25
77545;BME280;66672;50.328;7.610;2023-02-15T16:15:52;100887.03;;;8.05;59.38